sensor_id;sensor_type;location;lat;lon;timestamp;P1;durP1;ratioP1;P2;durP2;ratioP2
69203;SDS011;56317;27.658;85.326;2024-02-14T00:00:57;112.20;;;51.00;;
69203;SDS011;56317;27.658;85.326;2024-02-14T00:03:24;106.57;;;50.40;;
69203;SDS011;56317;27.658;85.326;2024-02-14T00:05:52;112.40;;;50.30;;
69203;SDS011;56317;27.658;85.326;2024-02-14T00:08:19;127.43;;;52.78;;
69203;SDS011;56317;27.658;85.326;2024-02-14T00:10:46;124.32;;;52.05;;
69203;SDS011;56317;27.658;85.326;2024-02-14T00:13:14;116.90;;;52.53;;
69203;SDS011;56317;27.658;85.326;2024-02-14T00:15:43;135.57;;;57.10;;
69203;SDS011;56317;27.658;85.326;2024-02-14T00:18:11;123.10;;;54.10;;
69203;SDS011;56317;27.658;85.326;2024-02-14T00:20:39;124.60;;;54.67;;
69203;SDS011;56317;27.658;85.326;2024-02-14T00:23:06;138.00;;;56.63;;
69203;SDS011;56317;27.658;85.326;2024-02-14T00:25:33;128.20;;;56.47;;
69203;SDS011;56317;27.658;85.326;2024-02-14T00:28:00;133.55;;;55.63;;
69203;SDS011;56317;27.658;85.326;2024-02-14T00:30:32;149.52;;;58.60;;
69203;SDS011;56317;27.658;85.326;2024-02-14T00:32:59;129.85;;;56.60;;
69203;SDS011;56317;27.658;85.326;2024-02-14T00:35:27;132.80;;;57.60;;
69203;SDS011;56317;27.658;85.326;2024-02-14T00:37:54;142.80;;;61.80;;
69203;SDS011;56317;27.658;85.326;2024-02-14T00:40:21;155.40;;;64.15;;
69203;SDS011;56317;27.658;85.326;2024-02-14T00:42:48;151.70;;;62.75;;
69203;SDS011;56317;27.658;85.326;2024-02-14T00:45:15;146.80;;;62.90;;
69203;SDS011;56317;27.658;85.326;2024-02-14T00:47:42;146.55;;;64.38;;
69203;SDS011;56317;27.658;85.326;2024-02-14T00:50:09;155.40;;;64.40;;
69203;SDS011;56317;27.658;85.326;2024-02-14T00:52:39;156.95;;;65.45;;
69203;SDS011;56317;27.658;85.326;2024-02-14T00:55:07;143.75;;;63.65;;
69203;SDS011;56317;27.658;85.326;2024-02-14T00:57:34;150.93;;;63.30;;
69203;SDS011;56317;27.658;85.326;2024-02-14T01:00:01;142.35;;;61.38;;
69203;SDS011;56317;27.658;85.326;2024-02-14T01:02:29;171.27;;;66.95;;
69203;SDS011;56317;27.658;85.326;2024-02-14T01:04:56;167.20;;;62.70;;
69203;SDS011;56317;27.658;85.326;2024-02-14T01:07:23;146.77;;;65.25;;
69203;SDS011;56317;27.658;85.326;2024-02-14T01:09:50;142.45;;;60.50;;
69203;SDS011;56317;27.658;85.326;2024-02-14T01:12:18;135.50;;;57.70;;
69203;SDS011;56317;27.658;85.326;2024-02-14T01:14:45;139.68;;;60.47;;
69203;SDS011;56317;27.658;85.326;2024-02-14T01:17:12;134.65;;;60.38;;
69203;SDS011;56317;27.658;85.326;2024-02-14T01:19:39;139.43;;;60.17;;
69203;SDS011;56317;27.658;85.326;2024-02-14T01:22:06;149.95;;;62.47;;
69203;SDS011;56317;27.658;85.326;2024-02-14T01:24:34;137.73;;;62.10;;
69203;SDS011;56317;27.658;85.326;2024-02-14T01:27:01;151.90;;;65.07;;
69203;SDS011;56317;27.658;85.326;2024-02-14T01:29:29;136.48;;;63.58;;
69203;SDS011;56317;27.658;85.326;2024-02-14T01:31:56;155.77;;;61.42;;
69203;SDS011;56317;27.658;85.326;2024-02-14T01:34:23;134.00;;;62.38;;
69203;SDS011;56317;27.658;85.326;2024-02-14T01:36:50;145.75;;;66.82;;
69203;SDS011;56317;27.658;85.326;2024-02-14T01:39:17;153.70;;;68.40;;
69203;SDS011;56317;27.658;85.326;2024-02-14T01:41:45;157.57;;;70.28;;
69203;SDS011;56317;27.658;85.326;2024-02-14T01:44:14;181.82;;;82.28;;
69203;SDS011;56317;27.658;85.326;2024-02-14T01:46:42;179.63;;;89.28;;
69203;SDS011;56317;27.658;85.326;2024-02-14T01:49:10;154.90;;;75.22;;
69203;SDS011;56317;27.658;85.326;2024-02-14T01:51:37;180.93;;;77.50;;
69203;SDS011;56317;27.658;85.326;2024-02-14T01:54:07;159.27;;;75.32;;
69203;SDS011;56317;27.658;85.326;2024-02-14T01:56:36;173.68;;;74.22;;
69203;SDS011;56317;27.658;85.326;2024-02-14T01:59:03;151.30;;;71.00;;
69203;SDS011;56317;27.658;85.326;2024-02-14T02:01:31;169.38;;;77.80;;
69203;SDS011;56317;27.658;85.326;2024-02-14T02:03:59;170.25;;;77.00;;
69203;SDS011;56317;27.658;85.326;2024-02-14T02:06:27;148.82;;;67.47;;
69203;SDS011;56317;27.658;85.326;2024-02-14T02:08:54;138.00;;;65.22;;
69203;SDS011;56317;27.658;85.326;2024-02-14T02:11:22;131.55;;;63.38;;
69203;SDS011;56317;27.658;85.326;2024-02-14T02:13:50;142.10;;;60.70;;
69203;SDS011;56317;27.658;85.326;2024-02-14T02:16:17;121.40;;;53.80;;
69203;SDS011;56317;27.658;85.326;2024-02-14T02:18:45;113.35;;;53.47;;
69203;SDS011;56317;27.658;85.326;2024-02-14T02:21:14;117.82;;;53.10;;
69203;SDS011;56317;27.658;85.326;2024-02-14T02:23:46;98.27;;;43.57;;
69203;SDS011;56317;27.658;85.326;2024-02-14T02:26:13;119.50;;;54.97;;
69203;SDS011;56317;27.658;85.326;2024-02-14T02:28:40;119.28;;;49.67;;
69203;SDS011;56317;27.658;85.326;2024-02-14T02:31:08;129.10;;;56.63;;
69203;SDS011;56317;27.658;85.326;2024-02-14T02:33:35;123.93;;;56.72;;
69203;SDS011;56317;27.658;85.326;2024-02-14T02:36:03;137.55;;;62.33;;
69203;SDS011;56317;27.658;85.326;2024-02-14T02:38:31;163.95;;;77.82;;
69203;SDS011;56317;27.658;85.326;2024-02-14T02:40:59;188.40;;;87.35;;
69203;SDS011;56317;27.658;85.326;2024-02-14T02:43:26;176.38;;;82.18;;
69203;SDS011;56317;27.658;85.326;2024-02-14T02:45:54;162.05;;;79.50;;
69203;SDS011;56317;27.658;85.326;2024-02-14T02:48:22;151.40;;;73.85;;
69203;SDS011;56317;27.658;85.326;2024-02-14T02:50:50;159.10;;;75.93;;
69203;SDS011;56317;27.658;85.326;2024-02-14T02:53:18;160.77;;;76.53;;
69203;SDS011;56317;27.658;85.326;2024-02-14T02:55:45;159.98;;;77.93;;
69203;SDS011;56317;27.658;85.326;2024-02-14T02:58:12;161.98;;;76.43;;
69203;SDS011;56317;27.658;85.326;2024-02-14T03:00:40;179.27;;;81.07;;
69203;SDS011;56317;27.658;85.326;2024-02-14T03:03:08;174.32;;;80.28;;
69203;SDS011;56317;27.658;85.326;2024-02-14T03:05:36;167.43;;;78.28;;
69203;SDS011;56317;27.658;85.326;2024-02-14T03:08:04;167.85;;;76.88;;
69203;SDS011;56317;27.658;85.326;2024-02-14T03:10:33;175.35;;;82.90;;
69203;SDS011;56317;27.658;85.326;2024-02-14T03:13:00;183.90;;;78.65;;
69203;SDS011;56317;27.658;85.326;2024-02-14T03:15:27;163.45;;;81.28;;
69203;SDS011;56317;27.658;85.326;2024-02-14T03:17:55;161.90;;;80.10;;
69203;SDS011;56317;27.658;85.326;2024-02-14T03:20:22;159.63;;;78.30;;
69203;SDS011;56317;27.658;85.326;2024-02-14T03:22:49;159.82;;;77.80;;
69203;SDS011;56317;27.658;85.326;2024-02-14T03:25:17;174.30;;;77.35;;
69203;SDS011;56317;27.658;85.326;2024-02-14T03:27:46;165.38;;;78.88;;
69203;SDS011;56317;27.658;85.326;2024-02-14T03:30:18;157.45;;;78.55;;
69203;SDS011;56317;27.658;85.326;2024-02-14T03:32:48;159.23;;;77.03;;
69203;SDS011;56317;27.658;85.326;2024-02-14T03:35:16;161.48;;;76.93;;
69203;SDS011;56317;27.658;85.326;2024-02-14T03:37:45;158.52;;;76.22;;
69203;SDS011;56317;27.658;85.326;2024-02-14T03:40:18;151.30;;;75.30;;
69203;SDS011;56317;27.658;85.326;2024-02-14T03:42:48;158.93;;;76.03;;
69203;SDS011;56317;27.658;85.326;2024-02-14T03:45:15;161.57;;;76.80;;
69203;SDS011;56317;27.658;85.326;2024-02-14T03:47:43;160.32;;;76.45;;
69203;SDS011;56317;27.658;85.326;2024-02-14T03:50:10;158.07;;;79.20;;
69203;SDS011;56317;27.658;85.326;2024-02-14T03:52:37;162.10;;;75.70;;
69203;SDS011;56317;27.658;85.326;2024-02-14T03:55:05;157.32;;;76.43;;
69203;SDS011;56317;27.658;85.326;2024-02-14T03:57:34;150.15;;;74.88;;
69203;SDS011;56317;27.658;85.326;2024-02-14T04:00:04;153.05;;;73.55;;
69203;SDS011;56317;27.658;85.326;2024-02-14T04:05:02;154.88;;;73.05;;
69203;SDS011;56317;27.658;85.326;2024-02-14T04:07:33;141.73;;;74.20;;
69203;SDS011;56317;27.658;85.326;2024-02-14T04:10:00;158.07;;;74.43;;
69203;SDS011;56317;27.658;85.326;2024-02-14T04:12:27;160.73;;;76.40;;
69203;SDS011;56317;27.658;85.326;2024-02-14T04:14:54;155.70;;;75.47;;
69203;SDS011;56317;27.658;85.326;2024-02-14T04:17:21;157.45;;;78.40;;
69203;SDS011;56317;27.658;85.326;2024-02-14T04:19:50;156.93;;;76.72;;
69203;SDS011;56317;27.658;85.326;2024-02-14T04:22:17;147.43;;;74.47;;
69203;SDS011;56317;27.658;85.326;2024-02-14T04:24:44;172.93;;;79.13;;
69203;SDS011;56317;27.658;85.326;2024-02-14T04:27:12;160.02;;;75.63;;
69203;SDS011;56317;27.658;85.326;2024-02-14T04:29:39;149.35;;;75.55;;
69203;SDS011;56317;27.658;85.326;2024-02-14T04:32:06;132.77;;;68.18;;
69203;SDS011;56317;27.658;85.326;2024-02-14T04:34:34;134.73;;;65.38;;
69203;SDS011;56317;27.658;85.326;2024-02-14T04:37:04;145.05;;;67.05;;
69203;SDS011;56317;27.658;85.326;2024-02-14T04:39:41;137.63;;;68.00;;
69203;SDS011;56317;27.658;85.326;2024-02-14T04:42:08;145.20;;;72.97;;
69203;SDS011;56317;27.658;85.326;2024-02-14T04:44:35;137.45;;;69.32;;
69203;SDS011;56317;27.658;85.326;2024-02-14T04:47:03;139.93;;;67.55;;
69203;SDS011;56317;27.658;85.326;2024-02-14T04:49:30;137.85;;;69.35;;
69203;SDS011;56317;27.658;85.326;2024-02-14T04:51:58;134.10;;;66.97;;
69203;SDS011;56317;27.658;85.326;2024-02-14T04:54:25;141.77;;;68.70;;
69203;SDS011;56317;27.658;85.326;2024-02-14T04:56:54;135.43;;;67.07;;
69203;SDS011;56317;27.658;85.326;2024-02-14T04:59:21;140.48;;;67.78;;
69203;SDS011;56317;27.658;85.326;2024-02-14T05:01:48;132.60;;;65.95;;
69203;SDS011;56317;27.658;85.326;2024-02-14T05:04:17;142.52;;;69.35;;
69203;SDS011;56317;27.658;85.326;2024-02-14T05:06:45;140.77;;;69.13;;
69203;SDS011;56317;27.658;85.326;2024-02-14T05:09:12;149.90;;;69.35;;
69203;SDS011;56317;27.658;85.326;2024-02-14T05:11:40;151.98;;;71.78;;
69203;SDS011;56317;27.658;85.326;2024-02-14T05:14:08;208.70;;;98.82;;
69203;SDS011;56317;27.658;85.326;2024-02-14T05:16:35;142.43;;;66.57;;
69203;SDS011;56317;27.658;85.326;2024-02-14T05:19:02;118.15;;;57.40;;
69203;SDS011;56317;27.658;85.326;2024-02-14T05:21:29;113.13;;;55.83;;
69203;SDS011;56317;27.658;85.326;2024-02-14T05:23:57;130.80;;;66.47;;
69203;SDS011;56317;27.658;85.326;2024-02-14T05:26:25;126.97;;;66.22;;
69203;SDS011;56317;27.658;85.326;2024-02-14T05:28:52;130.55;;;63.78;;
69203;SDS011;56317;27.658;85.326;2024-02-14T05:31:19;120.28;;;56.10;;
69203;SDS011;56317;27.658;85.326;2024-02-14T05:33:47;108.72;;;52.45;;
69203;SDS011;56317;27.658;85.326;2024-02-14T05:36:15;111.32;;;53.50;;
69203;SDS011;56317;27.658;85.326;2024-02-14T05:38:42;104.50;;;49.80;;
69203;SDS011;56317;27.658;85.326;2024-02-14T05:41:09;101.65;;;50.40;;
69203;SDS011;56317;27.658;85.326;2024-02-14T05:43:37;107.03;;;49.22;;
69203;SDS011;56317;27.658;85.326;2024-02-14T05:46:04;103.07;;;47.65;;
69203;SDS011;56317;27.658;85.326;2024-02-14T05:48:31;105.25;;;50.63;;
69203;SDS011;56317;27.658;85.326;2024-02-14T05:50:58;98.30;;;48.85;;
69203;SDS011;56317;27.658;85.326;2024-02-14T05:53:25;99.20;;;51.70;;
69203;SDS011;56317;27.658;85.326;2024-02-14T05:55:53;114.18;;;53.58;;
69203;SDS011;56317;27.658;85.326;2024-02-14T05:58:20;100.60;;;50.13;;
69203;SDS011;56317;27.658;85.326;2024-02-14T06:00:47;111.53;;;51.67;;
69203;SDS011;56317;27.658;85.326;2024-02-14T06:03:14;106.50;;;49.15;;
69203;SDS011;56317;27.658;85.326;2024-02-14T06:05:41;103.55;;;50.55;;
69203;SDS011;56317;27.658;85.326;2024-02-14T06:08:09;104.57;;;48.85;;
69203;SDS011;56317;27.658;85.326;2024-02-14T06:10:36;98.65;;;49.78;;
69203;SDS011;56317;27.658;85.326;2024-02-14T06:13:05;114.18;;;52.80;;
69203;SDS011;56317;27.658;85.326;2024-02-14T06:15:32;105.30;;;49.38;;
69203;SDS011;56317;27.658;85.326;2024-02-14T06:18:00;108.22;;;51.90;;
69203;SDS011;56317;27.658;85.326;2024-02-14T06:20:27;111.65;;;51.92;;
69203;SDS011;56317;27.658;85.326;2024-02-14T06:22:54;108.40;;;54.78;;
69203;SDS011;56317;27.658;85.326;2024-02-14T06:25:22;116.20;;;57.00;;
69203;SDS011;56317;27.658;85.326;2024-02-14T06:27:49;120.25;;;54.63;;
69203;SDS011;56317;27.658;85.326;2024-02-14T06:30:16;126.13;;;60.08;;
69203;SDS011;56317;27.658;85.326;2024-02-14T06:32:43;127.40;;;64.25;;
69203;SDS011;56317;27.658;85.326;2024-02-14T06:35:11;126.32;;;65.25;;
69203;SDS011;56317;27.658;85.326;2024-02-14T06:37:40;139.95;;;63.30;;
69203;SDS011;56317;27.658;85.326;2024-02-14T06:40:07;121.70;;;60.17;;
69203;SDS011;56317;27.658;85.326;2024-02-14T06:42:36;122.78;;;59.35;;
69203;SDS011;56317;27.658;85.326;2024-02-14T06:45:03;127.50;;;60.55;;
69203;SDS011;56317;27.658;85.326;2024-02-14T06:47:32;116.05;;;58.58;;
69203;SDS011;56317;27.658;85.326;2024-02-14T06:49:59;129.65;;;60.00;;
69203;SDS011;56317;27.658;85.326;2024-02-14T06:52:26;119.80;;;60.00;;
69203;SDS011;56317;27.658;85.326;2024-02-14T06:54:53;107.45;;;50.58;;
69203;SDS011;56317;27.658;85.326;2024-02-14T06:57:21;110.75;;;55.90;;
69203;SDS011;56317;27.658;85.326;2024-02-14T06:59:48;112.28;;;54.85;;
69203;SDS011;56317;27.658;85.326;2024-02-14T07:02:18;109.22;;;55.67;;
69203;SDS011;56317;27.658;85.326;2024-02-14T07:04:46;110.88;;;53.15;;
69203;SDS011;56317;27.658;85.326;2024-02-14T07:07:15;114.15;;;50.08;;
69203;SDS011;56317;27.658;85.326;2024-02-14T07:09:42;115.30;;;50.95;;
69203;SDS011;56317;27.658;85.326;2024-02-14T07:12:09;106.72;;;50.90;;
69203;SDS011;56317;27.658;85.326;2024-02-14T07:14:36;128.95;;;55.47;;
69203;SDS011;56317;27.658;85.326;2024-02-14T07:17:04;113.25;;;53.47;;
69203;SDS011;56317;27.658;85.326;2024-02-14T07:19:31;112.22;;;55.88;;
69203;SDS011;56317;27.658;85.326;2024-02-14T07:21:58;144.38;;;56.25;;
69203;SDS011;56317;27.658;85.326;2024-02-14T07:24:25;105.72;;;55.53;;
69203;SDS011;56317;27.658;85.326;2024-02-14T07:26:52;119.05;;;57.47;;
69203;SDS011;56317;27.658;85.326;2024-02-14T07:29:20;110.20;;;54.67;;
69203;SDS011;56317;27.658;85.326;2024-02-14T07:31:47;114.13;;;54.88;;
69203;SDS011;56317;27.658;85.326;2024-02-14T07:34:14;116.72;;;55.60;;
69203;SDS011;56317;27.658;85.326;2024-02-14T07:36:42;113.28;;;54.90;;
69203;SDS011;56317;27.658;85.326;2024-02-14T07:39:11;118.75;;;54.95;;
69203;SDS011;56317;27.658;85.326;2024-02-14T07:41:39;123.22;;;58.17;;
69203;SDS011;56317;27.658;85.326;2024-02-14T07:44:06;127.88;;;66.35;;
69203;SDS011;56317;27.658;85.326;2024-02-14T07:46:33;142.50;;;68.82;;
69203;SDS011;56317;27.658;85.326;2024-02-14T07:49:00;139.75;;;75.35;;
69203;SDS011;56317;27.658;85.326;2024-02-14T07:51:27;156.95;;;74.95;;
69203;SDS011;56317;27.658;85.326;2024-02-14T07:53:55;134.65;;;68.57;;
69203;SDS011;56317;27.658;85.326;2024-02-14T07:56:23;135.25;;;64.72;;
69203;SDS011;56317;27.658;85.326;2024-02-14T07:58:50;122.85;;;61.47;;
69203;SDS011;56317;27.658;85.326;2024-02-14T08:01:17;123.82;;;62.15;;
69203;SDS011;56317;27.658;85.326;2024-02-14T08:03:45;144.60;;;71.07;;
69203;SDS011;56317;27.658;85.326;2024-02-14T08:06:13;151.27;;;73.70;;
69203;SDS011;56317;27.658;85.326;2024-02-14T08:08:40;158.05;;;70.88;;
69203;SDS011;56317;27.658;85.326;2024-02-14T08:11:09;137.63;;;71.68;;
69203;SDS011;56317;27.658;85.326;2024-02-14T08:13:36;136.18;;;70.93;;
69203;SDS011;56317;27.658;85.326;2024-02-14T08:16:05;121.95;;;63.28;;
69203;SDS011;56317;27.658;85.326;2024-02-14T08:18:33;114.63;;;55.47;;
69203;SDS011;56317;27.658;85.326;2024-02-14T08:21:00;100.95;;;52.67;;
69203;SDS011;56317;27.658;85.326;2024-02-14T08:23:29;125.80;;;56.03;;
69203;SDS011;56317;27.658;85.326;2024-02-14T08:26:00;112.50;;;55.40;;
69203;SDS011;56317;27.658;85.326;2024-02-14T08:28:28;113.63;;;55.25;;
69203;SDS011;56317;27.658;85.326;2024-02-14T08:30:56;120.30;;;57.58;;
69203;SDS011;56317;27.658;85.326;2024-02-14T08:33:23;119.72;;;59.17;;
69203;SDS011;56317;27.658;85.326;2024-02-14T08:35:51;118.97;;;61.28;;
69203;SDS011;56317;27.658;85.326;2024-02-14T08:38:22;121.57;;;61.42;;
69203;SDS011;56317;27.658;85.326;2024-02-14T08:40:50;121.90;;;59.75;;
69203;SDS011;56317;27.658;85.326;2024-02-14T08:43:17;117.57;;;58.53;;
69203;SDS011;56317;27.658;85.326;2024-02-14T08:45:44;143.35;;;70.95;;
69203;SDS011;56317;27.658;85.326;2024-02-14T08:48:11;148.80;;;74.78;;
69203;SDS011;56317;27.658;85.326;2024-02-14T08:50:38;158.63;;;82.88;;
69203;SDS011;56317;27.658;85.326;2024-02-14T08:53:06;166.40;;;83.63;;
69203;SDS011;56317;27.658;85.326;2024-02-14T08:55:36;165.88;;;79.40;;
69203;SDS011;56317;27.658;85.326;2024-02-14T08:58:04;164.70;;;81.47;;
69203;SDS011;56317;27.658;85.326;2024-02-14T09:00:31;162.63;;;81.53;;
69203;SDS011;56317;27.658;85.326;2024-02-14T09:03:01;155.98;;;78.40;;
69203;SDS011;56317;27.658;85.326;2024-02-14T09:05:31;162.07;;;76.55;;
69203;SDS011;56317;27.658;85.326;2024-02-14T09:07:59;149.55;;;75.15;;
69203;SDS011;56317;27.658;85.326;2024-02-14T09:10:26;146.38;;;72.78;;
69203;SDS011;56317;27.658;85.326;2024-02-14T09:12:53;155.82;;;73.95;;
69203;SDS011;56317;27.658;85.326;2024-02-14T09:15:20;148.20;;;76.88;;
69203;SDS011;56317;27.658;85.326;2024-02-14T09:17:48;142.13;;;67.15;;
69203;SDS011;56317;27.658;85.326;2024-02-14T09:20:15;124.05;;;65.88;;
69203;SDS011;56317;27.658;85.326;2024-02-14T09:22:44;148.73;;;69.15;;
69203;SDS011;56317;27.658;85.326;2024-02-14T09:25:11;151.82;;;71.72;;
69203;SDS011;56317;27.658;85.326;2024-02-14T09:27:40;131.88;;;64.20;;
69203;SDS011;56317;27.658;85.326;2024-02-14T09:30:07;109.97;;;52.63;;
69203;SDS011;56317;27.658;85.326;2024-02-14T09:32:34;108.85;;;49.45;;
69203;SDS011;56317;27.658;85.326;2024-02-14T09:35:02;106.55;;;50.40;;
69203;SDS011;56317;27.658;85.326;2024-02-14T09:37:34;89.03;;;43.03;;
69203;SDS011;56317;27.658;85.326;2024-02-14T09:40:04;103.53;;;49.65;;
69203;SDS011;56317;27.658;85.326;2024-02-14T09:42:37;94.55;;;47.03;;
69203;SDS011;56317;27.658;85.326;2024-02-14T09:45:14;87.00;;;43.38;;
69203;SDS011;56317;27.658;85.326;2024-02-14T09:47:41;128.53;;;61.13;;
69203;SDS011;56317;27.658;85.326;2024-02-14T09:50:09;132.88;;;64.97;;
69203;SDS011;56317;27.658;85.326;2024-02-14T09:52:38;138.23;;;64.28;;
69203;SDS011;56317;27.658;85.326;2024-02-14T09:55:06;119.68;;;61.60;;
69203;SDS011;56317;27.658;85.326;2024-02-14T09:57:36;106.25;;;55.42;;
69203;SDS011;56317;27.658;85.326;2024-02-14T10:02:35;100.25;;;47.38;;
69203;SDS011;56317;27.658;85.326;2024-02-14T10:05:03;99.82;;;47.40;;
69203;SDS011;56317;27.658;85.326;2024-02-14T10:07:39;126.55;;;61.05;;
69203;SDS011;56317;27.658;85.326;2024-02-14T10:10:07;133.63;;;60.20;;
69203;SDS011;56317;27.658;85.326;2024-02-14T10:12:35;148.98;;;72.50;;
69203;SDS011;56317;27.658;85.326;2024-02-14T10:15:04;130.30;;;59.10;;
69203;SDS011;56317;27.658;85.326;2024-02-14T10:17:34;138.40;;;63.67;;
69203;SDS011;56317;27.658;85.326;2024-02-14T10:20:02;131.00;;;65.63;;
69203;SDS011;56317;27.658;85.326;2024-02-14T10:22:36;111.13;;;55.92;;
69203;SDS011;56317;27.658;85.326;2024-02-14T10:25:04;97.65;;;44.95;;
69203;SDS011;56317;27.658;85.326;2024-02-14T10:27:36;91.88;;;43.17;;
69203;SDS011;56317;27.658;85.326;2024-02-14T10:30:07;75.72;;;36.95;;
69203;SDS011;56317;27.658;85.326;2024-02-14T10:32:35;79.82;;;38.45;;
69203;SDS011;56317;27.658;85.326;2024-02-14T10:35:07;74.65;;;35.85;;
69203;SDS011;56317;27.658;85.326;2024-02-14T10:37:37;67.70;;;36.53;;
69203;SDS011;56317;27.658;85.326;2024-02-14T10:40:05;64.25;;;33.10;;
69203;SDS011;56317;27.658;85.326;2024-02-14T10:42:34;76.55;;;34.95;;
69203;SDS011;56317;27.658;85.326;2024-02-14T10:45:02;60.08;;;27.85;;
69203;SDS011;56317;27.658;85.326;2024-02-14T10:47:32;59.15;;;29.50;;
69203;SDS011;56317;27.658;85.326;2024-02-14T10:50:05;53.63;;;25.58;;
69203;SDS011;56317;27.658;85.326;2024-02-14T10:52:35;44.60;;;23.65;;
69203;SDS011;56317;27.658;85.326;2024-02-14T10:55:04;47.97;;;23.73;;
69203;SDS011;56317;27.658;85.326;2024-02-14T10:57:32;54.00;;;26.05;;
69203;SDS011;56317;27.658;85.326;2024-02-14T11:00:03;67.28;;;28.38;;
69203;SDS011;56317;27.658;85.326;2024-02-14T11:02:35;55.22;;;26.48;;
69203;SDS011;56317;27.658;85.326;2024-02-14T11:05:04;43.28;;;21.70;;
69203;SDS011;56317;27.658;85.326;2024-02-14T11:07:32;51.97;;;21.95;;
69203;SDS011;56317;27.658;85.326;2024-02-14T11:10:00;50.13;;;24.90;;
69203;SDS011;56317;27.658;85.326;2024-02-14T11:12:34;63.10;;;27.13;;
69203;SDS011;56317;27.658;85.326;2024-02-14T11:17:47;37.60;;;18.40;;
69203;SDS011;56317;27.658;85.326;2024-02-14T11:20:18;44.13;;;20.40;;
69203;SDS011;56317;27.658;85.326;2024-02-14T11:22:57;44.20;;;18.60;;
69203;SDS011;56317;27.658;85.326;2024-02-14T11:25:37;38.00;;;16.20;;
69203;SDS011;56317;27.658;85.326;2024-02-14T11:28:14;36.22;;;17.73;;
69203;SDS011;56317;27.658;85.326;2024-02-14T11:30:43;38.80;;;18.48;;
69203;SDS011;56317;27.658;85.326;2024-02-14T11:35:41;47.20;;;20.50;;
69203;SDS011;56317;27.658;85.326;2024-02-14T11:38:08;42.60;;;20.55;;
69203;SDS011;56317;27.658;85.326;2024-02-14T11:40:39;50.97;;;21.50;;
69203;SDS011;56317;27.658;85.326;2024-02-14T11:45:43;52.90;;;22.30;;
69203;SDS011;56317;27.658;85.326;2024-02-14T11:48:15;44.30;;;22.63;;
69203;SDS011;56317;27.658;85.326;2024-02-14T11:50:46;51.85;;;22.40;;
69203;SDS011;56317;27.658;85.326;2024-02-14T11:53:14;51.80;;;23.87;;
69203;SDS011;56317;27.658;85.326;2024-02-14T11:55:47;84.70;;;30.48;;
69203;SDS011;56317;27.658;85.326;2024-02-14T11:58:15;74.03;;;29.83;;
69203;SDS011;56317;27.658;85.326;2024-02-14T12:00:44;84.20;;;30.27;;
69203;SDS011;56317;27.658;85.326;2024-02-14T12:03:13;65.80;;;29.27;;
69203;SDS011;56317;27.658;85.326;2024-02-14T12:05:45;109.72;;;47.67;;
69203;SDS011;56317;27.658;85.326;2024-02-14T12:08:14;121.10;;;55.40;;
69203;SDS011;56317;27.658;85.326;2024-02-14T12:10:45;134.85;;;58.50;;
69203;SDS011;56317;27.658;85.326;2024-02-14T12:13:17;112.70;;;56.70;;
69203;SDS011;56317;27.658;85.326;2024-02-14T12:15:46;86.18;;;40.35;;
69203;SDS011;56317;27.658;85.326;2024-02-14T12:18:16;117.47;;;52.63;;
69203;SDS011;56317;27.658;85.326;2024-02-14T12:20:45;124.20;;;55.63;;
69203;SDS011;56317;27.658;85.326;2024-02-14T12:23:15;117.03;;;54.40;;
69203;SDS011;56317;27.658;85.326;2024-02-14T12:25:43;127.60;;;55.35;;
69203;SDS011;56317;27.658;85.326;2024-02-14T12:28:18;126.80;;;59.72;;
69203;SDS011;56317;27.658;85.326;2024-02-14T12:30:46;121.90;;;55.53;;
69203;SDS011;56317;27.658;85.326;2024-02-14T12:33:15;110.53;;;52.42;;
69203;SDS011;56317;27.658;85.326;2024-02-14T12:35:44;106.95;;;51.55;;
69203;SDS011;56317;27.658;85.326;2024-02-14T12:38:12;191.60;;;85.43;;
69203;SDS011;56317;27.658;85.326;2024-02-14T12:40:40;139.07;;;62.33;;
69203;SDS011;56317;27.658;85.326;2024-02-14T12:43:09;140.25;;;59.97;;
69203;SDS011;56317;27.658;85.326;2024-02-14T12:45:37;144.23;;;56.83;;
69203;SDS011;56317;27.658;85.326;2024-02-14T12:48:05;136.10;;;59.00;;
69203;SDS011;56317;27.658;85.326;2024-02-14T12:50:37;134.18;;;59.45;;
69203;SDS011;56317;27.658;85.326;2024-02-14T12:53:06;116.05;;;55.20;;
69203;SDS011;56317;27.658;85.326;2024-02-14T12:55:33;105.35;;;54.13;;
69203;SDS011;56317;27.658;85.326;2024-02-14T12:58:01;115.38;;;55.40;;
69203;SDS011;56317;27.658;85.326;2024-02-14T13:00:29;102.72;;;48.03;;
69203;SDS011;56317;27.658;85.326;2024-02-14T13:02:57;101.60;;;49.90;;
69203;SDS011;56317;27.658;85.326;2024-02-14T13:05:26;132.70;;;58.17;;
69203;SDS011;56317;27.658;85.326;2024-02-14T13:07:53;123.55;;;54.33;;
69203;SDS011;56317;27.658;85.326;2024-02-14T13:10:20;129.48;;;56.83;;
69203;SDS011;56317;27.658;85.326;2024-02-14T13:12:48;124.65;;;57.28;;
69203;SDS011;56317;27.658;85.326;2024-02-14T13:15:16;106.55;;;53.85;;
69203;SDS011;56317;27.658;85.326;2024-02-14T13:17:43;110.50;;;50.65;;
69203;SDS011;56317;27.658;85.326;2024-02-14T13:20:10;113.30;;;49.03;;
69203;SDS011;56317;27.658;85.326;2024-02-14T13:22:41;93.05;;;45.08;;
69203;SDS011;56317;27.658;85.326;2024-02-14T13:25:08;90.75;;;43.75;;
69203;SDS011;56317;27.658;85.326;2024-02-14T13:27:35;91.57;;;45.30;;
69203;SDS011;56317;27.658;85.326;2024-02-14T13:30:04;91.25;;;45.10;;
69203;SDS011;56317;27.658;85.326;2024-02-14T13:32:32;93.32;;;46.63;;
69203;SDS011;56317;27.658;85.326;2024-02-14T13:34:59;102.45;;;44.55;;
69203;SDS011;56317;27.658;85.326;2024-02-14T13:37:27;97.65;;;47.40;;
69203;SDS011;56317;27.658;85.326;2024-02-14T13:39:54;94.32;;;47.90;;
69203;SDS011;56317;27.658;85.326;2024-02-14T13:42:21;97.22;;;48.30;;
69203;SDS011;56317;27.658;85.326;2024-02-14T13:44:48;94.60;;;48.20;;
69203;SDS011;56317;27.658;85.326;2024-02-14T13:47:19;104.75;;;47.30;;
69203;SDS011;56317;27.658;85.326;2024-02-14T13:49:46;95.68;;;48.33;;
69203;SDS011;56317;27.658;85.326;2024-02-14T13:52:13;103.00;;;49.65;;
69203;SDS011;56317;27.658;85.326;2024-02-14T13:54:42;99.53;;;47.47;;
69203;SDS011;56317;27.658;85.326;2024-02-14T13:57:09;109.63;;;48.83;;
69203;SDS011;56317;27.658;85.326;2024-02-14T13:59:37;104.55;;;46.88;;
69203;SDS011;56317;27.658;85.326;2024-02-14T14:02:04;91.07;;;49.25;;
69203;SDS011;56317;27.658;85.326;2024-02-14T14:04:31;98.78;;;48.33;;
69203;SDS011;56317;27.658;85.326;2024-02-14T14:07:00;102.90;;;48.58;;
69203;SDS011;56317;27.658;85.326;2024-02-14T14:09:29;104.22;;;49.35;;
69203;SDS011;56317;27.658;85.326;2024-02-14T14:11:58;99.20;;;46.97;;
69203;SDS011;56317;27.658;85.326;2024-02-14T14:14:25;100.03;;;47.80;;
69203;SDS011;56317;27.658;85.326;2024-02-14T14:16:54;96.20;;;47.40;;